Station Historical Data
Daily Summary for June 27, 2017 Units:  Metric    English   Both
« Previous Day
Next Day »
Daily Weekly Monthly Yearly Custom
  High: Low: Average:
Temperature: 19.2 °C 11.3 °C 15.4 °C
Dew Point: 13.6 °C 7.9 °C 11 °C
Humidity: 88% 62% 75%
Wind Speed: 22.5km/h 0km/h 6km/h
Wind Gust: 35.4km/h - -
Wind- - WSW
Pressure: 1017.2 hPa 1013.1 hPa -
Precipitation: 0 mm    
Historical Graphs
 
 
Tabular Data for June 27, 2017
Time Temperature Dew Point Pressure Wind Wind Speed Wind Gust Humidity Rainfall Rate (Hourly)
00:04 14.1 °C 9.7 °C 1013.8 hPa Calm     75% 0 mm
00:09 14.2 °C 9.8 °C 1013.8 hPa Calm     75% 0 mm
00:14 14.2 °C 9.8 °C 1013.8 hPa Calm     75% 0 mm
00:19 14.2 °C 9.8 °C 1013.8 hPa Calm     75% 0 mm
00:24 14.1 °C 9.9 °C 1013.8 hPa Calm     76% 0 mm
00:29 13.9 °C 9.7 °C 1013.4 hPa Calm     76% 0 mm
00:34 13.8 °C 9.6 °C 1013.4 hPa Calm     76% 0 mm
00:39 13.9 °C 10 °C 1013.4 hPa South 1.6 km/h 6.4 km/h 77% 0 mm
00:44 14.1 °C 10.1 °C 1013.4 hPa South 1.6 km/h 6.4 km/h 77% 0 mm
00:49 14.3 °C 10.3 °C 1013.4 hPa South 1.6 km/h 6.4 km/h 77% 0 mm
00:54 14.4 °C 10.4 °C 1013.4 hPa South 4.8 km/h 8 km/h 77% 0 mm
00:59 14.4 °C 10.4 °C 1013.4 hPa SSE 3.2 km/h 6.4 km/h 77% 0 mm
01:04 14.4 °C 10.4 °C 1013.4 hPa South 3.2 km/h 9.7 km/h 77% 0 mm
01:09 14.3 °C 10.5 °C 1013.4 hPa South 3.2 km/h 9.7 km/h 78% 0 mm
01:14 14.2 °C 10.4 °C 1013.4 hPa Calm   4.8 km/h 78% 0 mm
01:19 14.3 °C 10.5 °C 1013.4 hPa South 4.8 km/h 6.4 km/h 78% 0 mm
01:24 14.3 °C 10.5 °C 1013.4 hPa South 1.6 km/h 8 km/h 78% 0 mm
01:29 14.3 °C 10.5 °C 1013.4 hPa South 6.4 km/h 11.3 km/h 78% 0 mm
01:34 14.4 °C 10.4 °C 1013.4 hPa South 3.2 km/h 11.3 km/h 77% 0 mm
01:39 14.5 °C 10.5 °C 1013.4 hPa SSW 3.2 km/h 11.3 km/h 77% 0 mm
01:44 14.7 °C 10.5 °C 1013.1 hPa South 3.2 km/h 11.3 km/h 76% 0 mm
01:49 14.8 °C 10.6 °C 1013.1 hPa South 3.2 km/h 9.7 km/h 76% 0 mm
01:54 14.8 °C 10.6 °C 1013.1 hPa South 1.6 km/h 6.4 km/h 76% 0 mm
01:59 14.8 °C 10.6 °C 1013.1 hPa West 1.6 km/h 8 km/h 76% 0 mm
02:04 14.9 °C 10.3 °C 1013.1 hPa SSW 4.8 km/h 11.3 km/h 74% 0 mm
02:09 15.1 °C 10.7 °C 1013.4 hPa SSW 12.9 km/h 29 km/h 75% 0 mm
02:14 15.1 °C 10.8 °C 1013.4 hPa SW 4.8 km/h 20.9 km/h 76% 0 mm
02:19 14.8 °C 11.1 °C 1013.4 hPa SSW 11.3 km/h 19.3 km/h 78% 0 mm
02:24 14.6 °C 11.2 °C 1013.4 hPa WSW 8 km/h 17.7 km/h 80% 0 mm
02:29 14.4 °C 11.2 °C 1013.4 hPa SW 6.4 km/h 17.7 km/h 81% 0 mm
02:34 14.3 °C 11.3 °C 1013.4 hPa SW 4.8 km/h 9.7 km/h 82% 0 mm
02:39 14.3 °C 11.2 °C 1013.4 hPa WSW 3.2 km/h 6.4 km/h 82% 0 mm
02:44 14.3 °C 11.4 °C 1013.4 hPa WSW 3.2 km/h 6.4 km/h 83% 0 mm
02:49 14.3 °C 11.3 °C 1013.1 hPa Calm   4.8 km/h 82% 0 mm
02:54 14.3 °C 11.3 °C 1013.1 hPa Calm   1.6 km/h 82% 0 mm
02:59 14.3 °C 11.3 °C 1013.1 hPa Calm   4.8 km/h 82% 0 mm
03:04 14.3 °C 11.2 °C 1013.1 hPa WSW 1.6 km/h 4.8 km/h 82% 0 mm
03:09 14.3 °C 10.9 °C 1013.1 hPa West 1.6 km/h 8 km/h 80% 0 mm
03:14 14.3 °C 10.9 °C 1013.1 hPa West 3.2 km/h 8 km/h 80% 0 mm
03:19 14.3 °C 10.7 °C 1013.4 hPa West 1.6 km/h 6.4 km/h 79% 0 mm
03:24 14.3 °C 10.7 °C 1013.4 hPa SSW 3.2 km/h 4.8 km/h 79% 0 mm
03:29 14.3 °C 11.1 °C 1013.8 hPa SSW 3.2 km/h 8 km/h 81% 0.25 mm
03:34 14.1 °C 10.8 °C 1013.4 hPa SSW 3.2 km/h 11.3 km/h 81% 0.25 mm
03:39 13.8 °C 10.8 °C 1013.4 hPa Calm   6.4 km/h 82% 0.25 mm
03:44 13.7 °C 10.7 °C 1013.4 hPa SSW 1.6 km/h 4.8 km/h 82% 0.25 mm
03:49 13.6 °C 10.8 °C 1013.4 hPa SSW 3.2 km/h 4.8 km/h 83% 0.25 mm
03:54 13.6 °C 10.8 °C 1013.8 hPa SSW 4.8 km/h 8 km/h 83% 0.25 mm
03:59 13.6 °C 10.7 °C 1013.8 hPa Calm   8 km/h 83% 0.25 mm
04:04 13.6 °C 10.9 °C 1013.4 hPa SSW 3.2 km/h 11.3 km/h 84% 0.25 mm
04:09 13.4 °C 10.8 °C 1013.4 hPa SSW 1.6 km/h 11.3 km/h 84% 0.25 mm
04:14 13.4 °C 10.7 °C 1013.8 hPa SSW 1.6 km/h 9.7 km/h 84% 0.51 mm
04:19 13.3 °C 10.7 °C 1013.4 hPa SSE 9.7 km/h 9.7 km/h 84% 0.51 mm
04:24 13.3 °C 10.6 °C 1013.4 hPa South 1.6 km/h 9.7 km/h 84% 0.51 mm
04:29 13.3 °C 10.6 °C 1013.4 hPa South 6.4 km/h 9.7 km/h 84% 0.25 mm
04:34 13.2 °C 10.6 °C 1013.4 hPa South 3.2 km/h 9.7 km/h 84% 0.25 mm
04:39 13.1 °C 10.4 °C 1013.1 hPa SSE 4.8 km/h 11.3 km/h 84% 0.25 mm
04:44 13.1 °C 10.2 °C 1013.1 hPa SSE 4.8 km/h 11.3 km/h 83% 0.25 mm
04:49 13.1 °C 10.4 °C 1013.4 hPa Calm   6.4 km/h 84% 0.25 mm
04:54 13 °C 10.3 °C 1013.4 hPa SSW 1.6 km/h 6.4 km/h 84% 0.25 mm
04:59 12.9 °C 10.1 °C 1013.4 hPa South 3.2 km/h 8 km/h 83% 0.25 mm
05:04 12.8 °C 9.9 °C 1013.4 hPa SSW 4.8 km/h 9.7 km/h 83% 0.25 mm
05:09 12.7 °C 9.9 °C 1013.4 hPa SSW 4.8 km/h 9.7 km/h 83% 0.25 mm
05:14 12.7 °C 9.8 °C 1013.4 hPa SSW 4.8 km/h 16.1 km/h 83% 0 mm
05:19 12.7 °C 10.1 °C 1013.4 hPa SSW 6.4 km/h 19.3 km/h 84% 0 mm
05:24 12.7 °C 10.1 °C 1013.8 hPa SSW 8 km/h 19.3 km/h 84% 1.27 mm
05:29 12.8 °C 10.4 °C 1013.8 hPa SW 8 km/h 17.7 km/h 85% 1.52 mm
05:34 12.7 °C 10.4 °C 1013.8 hPa WSW 9.7 km/h 24.1 km/h 86% 1.78 mm
05:39 12.5 °C 10.1 °C 1013.8 hPa WSW 8 km/h 22.5 km/h 85% 1.78 mm
05:44 12.4 °C 10.1 °C 1013.8 hPa West 6.4 km/h 11.3 km/h 86% 1.78 mm
05:49 12.3 °C 10.1 °C 1013.8 hPa West 8 km/h 19.3 km/h 86% 1.78 mm
05:54 12.3 °C 10 °C 1013.8 hPa West 3.2 km/h 12.9 km/h 86% 1.78 mm
05:59 12.3 °C 10 °C 1013.4 hPa WNW 3.2 km/h 11.3 km/h 86% 1.78 mm
06:04 12.3 °C 9.8 °C 1013.4 hPa West 4.8 km/h 11.3 km/h 85% 1.78 mm
06:09 12.2 °C 9.9 °C 1013.4 hPa WNW 1.6 km/h 4.8 km/h 86% 2.03 mm
06:14 12.3 °C 10 °C 1013.4 hPa Calm   3.2 km/h 86% 2.03 mm
06:19 12.3 °C 10.2 °C 1013.8 hPa WNW 1.6 km/h 4.8 km/h 87% 1.78 mm
06:24 12.3 °C 10.2 °C 1013.8 hPa Calm   3.2 km/h 87% 0.76 mm
06:29 12.3 °C 10.2 °C 1013.8 hPa Calm     87% 0.51 mm
06:34 12.3 °C 10.3 °C 1013.8 hPa Calm     88% 0.25 mm
06:39 12.3 °C 10.4 °C 1013.8 hPa Calm     88% 0.25 mm
06:44 12.4 °C 10.5 °C 1013.8 hPa Calm     88% 0.25 mm
06:49 12.6 °C 10.6 °C 1013.8 hPa Calm     88% 0.25 mm
06:54 12.6 °C 10.6 °C 1013.8 hPa Calm     88% 0.25 mm
06:59 12.7 °C 10.7 °C 1013.8 hPa Calm     88% 0.25 mm
07:04 12.8 °C 10.8 °C 1013.8 hPa Calm     88% 0.25 mm
07:09 12.8 °C 10.9 °C 1013.8 hPa Calm     88% 0 mm
07:14 12.8 °C 10.9 °C 1013.8 hPa Calm     88% 0 mm
07:19 13.1 °C 11.1 °C 1013.8 hPa South 3.2 km/h 4.8 km/h 88% 0 mm
07:24 13.3 °C 11.4 °C 1013.8 hPa South 1.6 km/h 8 km/h 88% 0 mm
07:29 13.6 °C 11.4 °C 1013.8 hPa SSW 3.2 km/h 11.3 km/h 87% 0 mm
07:34 14 °C 11.9 °C 1013.8 hPa SSW 3.2 km/h 11.3 km/h 87% 0 mm
07:39 13.9 °C 11.4 °C 1013.8 hPa SSW 4.8 km/h 12.9 km/h 85% 0 mm
07:44 13.4 °C 10.8 °C 1013.8 hPa SSW 6.4 km/h 14.5 km/h 84% 0 mm
07:49 13.2 °C 10.5 °C 1013.8 hPa SW 4.8 km/h 14.5 km/h 84% 0 mm
07:54 13.1 °C 10.4 °C 1014.1 hPa WSW 3.2 km/h 6.4 km/h 84% 0 mm
07:59 13.1 °C 10.7 °C 1014.1 hPa WSW 3.2 km/h 6.4 km/h 85% 0 mm
08:04 13.2 °C 10.8 °C 1014.1 hPa West 1.6 km/h 6.4 km/h 85% 0 mm
08:09 13.3 °C 10.9 °C 1014.1 hPa SSW 1.6 km/h 6.4 km/h 85% 0 mm
08:14 13.4 °C 10.6 °C 1014.1 hPa South 6.4 km/h 8 km/h 83% 0 mm
08:19 13.6 °C 10.8 °C 1014.1 hPa WSW 4.8 km/h 9.7 km/h 83% 0 mm
08:24 13.8 °C 10.8 °C 1014.1 hPa West 8 km/h 12.9 km/h 82% 0 mm
08:29 14.1 °C 10.9 °C 1014.1 hPa SW 6.4 km/h 12.9 km/h 81% 0 mm
08:34 14.4 °C 10.8 °C 1014.1 hPa SW 6.4 km/h 12.9 km/h 79% 0 mm
08:39 14.6 °C 10.8 °C 1014.1 hPa SW 6.4 km/h 14.5 km/h 78% 0 mm
08:44 14.3 °C 9.9 °C 1014.4 hPa NW 1.6 km/h 19.3 km/h 75% 0 mm
08:49 12.9 °C 8.4 °C 1014.4 hPa WNW 1.6 km/h 11.3 km/h 74% 0 mm
08:54 12.3 °C 8.2 °C 1014.1 hPa NNW 3.2 km/h 9.7 km/h 76% 0 mm
08:59 12 °C 7.9 °C 1014.1 hPa NNW 3.2 km/h 9.7 km/h 76% 0.25 mm
09:04 11.8 °C 8.4 °C 1014.1 hPa North 1.6 km/h 8 km/h 80% 0.76 mm
09:09 11.6 °C 8.7 °C 1014.8 hPa NNW 1.6 km/h 8 km/h 82% 0.76 mm
09:14 11.4 °C 8.7 °C 1014.8 hPa Calm   8 km/h 83% 1.52 mm
09:19 11.3 °C 8.7 °C 1014.8 hPa NW 3.2 km/h 4.8 km/h 84% 1.78 mm
09:24 11.3 °C 8.9 °C 1014.8 hPa Calm   3.2 km/h 85% 2.03 mm
09:29 11.4 °C 9.2 °C 1014.8 hPa Calm   3.2 km/h 86% 3.05 mm
09:34 11.7 °C 9.6 °C 1014.4 hPa Calm     87% 3.05 mm
09:39 11.8 °C 9.7 °C 1014.4 hPa Calm   14.5 km/h 87% 3.05 mm
09:44 12.5 °C 10.4 °C 1014.4 hPa South 4.8 km/h 11.3 km/h 87% 3.05 mm
09:49 12.9 °C 10.5 °C 1014.8 hPa SW 8 km/h 19.3 km/h 85% 3.05 mm
09:54 13.3 °C 10.6 °C 1014.8 hPa SW 3.2 km/h 14.5 km/h 84% 3.05 mm
09:59 13.6 °C 10.9 °C 1014.8 hPa WNW 1.6 km/h 11.3 km/h 84% 2.79 mm
10:04 13.7 °C 10.5 °C 1014.8 hPa West 4.8 km/h 11.3 km/h 81% 2.29 mm
10:09 13.9 °C 10.9 °C 1014.8 hPa West 4.8 km/h 11.3 km/h 82% 2.29 mm
10:14 13.9 °C 10.9 °C 1014.8 hPa WNW 4.8 km/h 11.3 km/h 82% 1.52 mm
10:19 14.2 °C 11.3 °C 1014.8 hPa WNW 3.2 km/h 9.7 km/h 83% 1.27 mm
10:24 14.4 °C 10.8 °C 1014.8 hPa West 3.2 km/h 11.3 km/h 79% 0.76 mm
10:29 14.7 °C 10.9 °C 1014.4 hPa WSW 6.4 km/h 16.1 km/h 78% 0 mm
10:34 14.6 °C 10.6 °C 1014.8 hPa SW 14.5 km/h 19.3 km/h 77% 0 mm
10:39 14.5 °C 10.3 °C 1014.4 hPa WSW 4.8 km/h 19.3 km/h 76% 0 mm
10:44 14.6 °C 10.8 °C 1014.4 hPa SSW 4.8 km/h 12.9 km/h 78% 0 mm
10:49 14.9 °C 10.9 °C 1014.4 hPa SW 9.7 km/h 16.1 km/h 77% 0 mm
10:54 15.2 °C 11.2 °C 1014.4 hPa SW 9.7 km/h 17.7 km/h 77% 0 mm
10:59 16 °C 11.4 °C 1014.4 hPa WSW 6.4 km/h 17.7 km/h 74% 0 mm
11:04 15.6 °C 10.7 °C 1014.4 hPa WSW 9.7 km/h 24.1 km/h 73% 0 mm
11:09 15.7 °C 11.1 °C 1014.4 hPa SW 9.7 km/h 24.1 km/h 74% 0 mm
11:14 16.2 °C 10.9 °C 1014.4 hPa SSW 9.7 km/h 22.5 km/h 71% 0 mm
11:19 16.9 °C 11.4 °C 1014.4 hPa SW 8 km/h 17.7 km/h 70% 0 mm
11:24 16.9 °C 10.8 °C 1014.4 hPa WSW 9.7 km/h 17.7 km/h 67% 0 mm
11:29 16.8 °C 10.9 °C 1014.4 hPa SW 4.8 km/h 20.9 km/h 68% 0 mm
11:34 16.3 °C 10.4 °C 1014.4 hPa SW 8 km/h 20.9 km/h 68% 0 mm
11:39 16.2 °C 10.5 °C 1014.1 hPa WSW 8 km/h 17.7 km/h 69% 0 mm
11:44 17.6 °C 12 °C 1014.1 hPa SW 8 km/h 17.7 km/h 70% 0 mm
11:49 17.7 °C 11.9 °C 1014.4 hPa WSW 14.5 km/h 19.3 km/h 69% 0 mm
11:54 17.9 °C 11.7 °C 1014.1 hPa West 11.3 km/h 16.1 km/h 67% 0 mm
11:59 17.4 °C 10.5 °C 1014.1 hPa West 9.7 km/h 27.4 km/h 64% 0 mm
12:04 16.6 °C 9.6 °C 1014.4 hPa WSW 12.9 km/h 27.4 km/h 63% 0 mm
12:09 16.1 °C 10.8 °C 1014.4 hPa West 9.7 km/h 27.4 km/h 71% 0 mm
12:14 15.3 °C 10.5 °C 1014.4 hPa West 4.8 km/h 14.5 km/h 73% 0.25 mm
12:19 15.1 °C 10.8 °C 1014.4 hPa West 3.2 km/h 9.7 km/h 76% 0.25 mm
12:24 15.2 °C 10.9 °C 1014.4 hPa WSW 17.7 km/h 17.7 km/h 76% 0.25 mm
12:29 15.4 °C 11.2 °C 1014.4 hPa West 6.4 km/h 17.7 km/h 76% 0.25 mm
12:34 15.7 °C 11.4 °C 1014.4 hPa WSW 6.4 km/h 17.7 km/h 76% 0.25 mm
12:39 16.3 °C 11.7 °C 1014.1 hPa SW 8 km/h 17.7 km/h 74% 0.25 mm
12:44 16.6 °C 12.1 °C 1014.1 hPa SW 9.7 km/h 22.5 km/h 75% 0.25 mm
12:49 16.6 °C 11.6 °C 1014.1 hPa WSW 11.3 km/h 30.6 km/h 72% 0.25 mm
12:54 17.2 °C 12.3 °C 1014.1 hPa WSW 12.9 km/h 30.6 km/h 73% 0.25 mm
12:59 17 °C 11.3 °C 1014.1 hPa WSW 12.9 km/h 27.4 km/h 69% 0.25 mm
13:04 16.7 °C 12.1 °C 1014.4 hPa WSW 12.9 km/h 20.9 km/h 74% 0.25 mm
13:09 17 °C 12.3 °C 1014.4 hPa SW 17.7 km/h 30.6 km/h 74% 0.25 mm
13:14 17.7 °C 11.9 °C 1014.4 hPa West 14.5 km/h 29 km/h 69% 0 mm
13:19 18.2 °C 12.4 °C 1014.1 hPa SW 20.9 km/h 27.4 km/h 69% 0 mm
13:24 17.7 °C 11.4 °C 1014.1 hPa WSW 19.3 km/h 32.2 km/h 67% 0 mm
13:29 17.2 °C 11.4 °C 1014.4 hPa WSW 20.9 km/h 35.4 km/h 69% 0 mm
13:34 16.9 °C 11.4 °C 1014.4 hPa WSW 16.1 km/h 35.4 km/h 70% 0 mm
13:39 16.9 °C 11.7 °C 1014.4 hPa WSW 14.5 km/h 32.2 km/h 71% 0 mm
13:44 16.9 °C 12.3 °C 1014.4 hPa West 12.9 km/h 29 km/h 74% 0 mm
13:49 16.8 °C 12.6 °C 1014.4 hPa West 11.3 km/h 29 km/h 76% 0 mm
13:54 17.7 °C 12.4 °C 1014.4 hPa WSW 11.3 km/h 24.1 km/h 71% 0 mm
13:59 18.3 °C 12.1 °C 1014.4 hPa WSW 12.9 km/h 29 km/h 67% 0 mm
14:04 18.3 °C 12.3 °C 1014.4 hPa SW 8 km/h 30.6 km/h 68% 0 mm
14:09 18 °C 12 °C 1014.4 hPa SW 12.9 km/h 27.4 km/h 68% 0 mm
14:14 17.8 °C 11.4 °C 1014.4 hPa WNW 8 km/h 27.4 km/h 66% 0 mm
14:19 17.8 °C 10.9 °C 1014.4 hPa West 8 km/h 32.2 km/h 64% 0 mm
14:24 18.2 °C 11.3 °C 1014.4 hPa WSW 16.1 km/h 30.6 km/h 64% 0 mm
14:29 17.6 °C 11.4 °C 1014.4 hPa WSW 14.5 km/h 30.6 km/h 67% 0 mm
14:34 17.1 °C 11.8 °C 1014.8 hPa WSW 14.5 km/h 29 km/h 71% 0 mm
14:39 16.9 °C 11.8 °C 1014.8 hPa WSW 14.5 km/h 29 km/h 72% 0 mm
14:44 15.9 °C 11.3 °C 1014.8 hPa West 12.9 km/h 27.4 km/h 74% 0 mm
14:49 15.3 °C 12.1 °C 1014.8 hPa West 11.3 km/h 27.4 km/h 81% 0.25 mm
14:54 15.5 °C 12.3 °C 1014.8 hPa WNW 4.8 km/h 17.7 km/h 81% 0.25 mm
14:59 15.4 °C 12.2 °C 1014.8 hPa WSW 9.7 km/h 20.9 km/h 81% 0.25 mm
15:04 15.4 °C 12.3 °C 1014.8 hPa WSW 9.7 km/h 20.9 km/h 82% 0.25 mm
15:09 15.2 °C 12.2 °C 1015.1 hPa WSW 9.7 km/h 24.1 km/h 82% 0.25 mm
15:14 14.8 °C 11.8 °C 1014.8 hPa SW 6.4 km/h 24.1 km/h 82% 0.51 mm
15:19 15.1 °C 12.4 °C 1014.8 hPa WSW 16.1 km/h 19.3 km/h 84% 0.51 mm
15:24 16.2 °C 13.3 °C 1014.8 hPa West 4.8 km/h 24.1 km/h 83% 0.51 mm
15:29 16.7 °C 13.4 °C 1014.8 hPa West 11.3 km/h 24.1 km/h 81% 0.51 mm
15:34 17.1 °C 13.6 °C 1014.8 hPa West 9.7 km/h 20.9 km/h 80% 0.51 mm
15:39 17.1 °C 13.1 °C 1014.8 hPa WSW 9.7 km/h 19.3 km/h 77% 0.51 mm
15:44 17.3 °C 13.4 °C 1014.8 hPa NW 12.9 km/h 24.1 km/h 78% 0.51 mm
15:49 17.2 °C 11.9 °C 1014.8 hPa WSW 22.5 km/h 25.7 km/h 71% 0.25 mm
15:54 16.6 °C 12.2 °C 1014.8 hPa West 11.3 km/h 27.4 km/h 75% 0.25 mm
15:59 17 °C 12.1 °C 1014.8 hPa West 12.9 km/h 27.4 km/h 73% 0.25 mm
16:04 17.1 °C 11.9 °C 1014.8 hPa West 12.9 km/h 22.5 km/h 72% 0.25 mm
16:09 17.1 °C 12.7 °C 1014.8 hPa West 11.3 km/h 20.9 km/h 75% 0.25 mm
16:14 17.1 °C 11.9 °C 1014.8 hPa West 9.7 km/h 24.1 km/h 72% 0 mm
16:19 17.1 °C 12.2 °C 1014.8 hPa WNW 22.5 km/h 22.5 km/h 73% 0 mm
16:24 16.8 °C 12.1 °C 1015.1 hPa WNW 9.7 km/h 22.5 km/h 74% 0 mm
16:29 16.5 °C 12.3 °C 1015.1 hPa West 9.7 km/h 22.5 km/h 76% 0 mm
16:34 16.3 °C 12.1 °C 1015.1 hPa WSW 6.4 km/h 24.1 km/h 76% 0 mm
16:39 16.2 °C 12.1 °C 1015.1 hPa West 12.9 km/h 14.5 km/h 77% 0 mm
16:44 16.1 °C 12.3 °C 1015.1 hPa West 14.5 km/h 20.9 km/h 78% 0 mm
16:49 16.1 °C 11.7 °C 1015.1 hPa West 8 km/h 19.3 km/h 75% 0 mm
16:54 16.3 °C 12.1 °C 1015.1 hPa West 4.8 km/h 14.5 km/h 76% 0 mm
16:59 16.4 °C 11.8 °C 1015.1 hPa West 9.7 km/h 19.3 km/h 74% 0 mm
17:04 16.5 °C 12.1 °C 1015.1 hPa West 9.7 km/h 19.3 km/h 75% 0 mm
17:09 16.6 °C 11.9 °C 1015.1 hPa West 11.3 km/h 19.3 km/h 74% 0 mm
17:14 16.6 °C 11.9 °C 1015.1 hPa WSW 4.8 km/h 19.3 km/h 74% 0 mm
17:19 16.7 °C 12.2 °C 1015.1 hPa WSW 8 km/h 20.9 km/h 75% 0 mm
17:24 16.7 °C 12.2 °C 1015.1 hPa West 14.5 km/h 19.3 km/h 75% 0 mm
17:29 16.7 °C 12.1 °C 1015.1 hPa West 9.7 km/h 19.3 km/h 74% 0 mm
17:34 16.7 °C 11.8 °C 1015.1 hPa WSW 11.3 km/h 22.5 km/h 73% 0 mm
17:39 17 °C 12.1 °C 1015.1 hPa WSW 9.7 km/h 22.5 km/h 73% 0 mm
17:44 17.3 °C 12.7 °C 1014.8 hPa WSW 6.4 km/h 17.7 km/h 74% 0 mm
17:49 17.9 °C 13.2 °C 1014.8 hPa WSW 9.7 km/h 17.7 km/h 74% 0 mm
17:54 18.5 °C 13.2 °C 1014.8 hPa SW 16.1 km/h 24.1 km/h 71% 0 mm
17:59 18.6 °C 12.8 °C 1014.8 hPa WSW 9.7 km/h 24.1 km/h 69% 0 mm
18:04 18.8 °C 12.9 °C 1014.8 hPa WNW 8 km/h 17.7 km/h 69% 0 mm
18:09 19.2 °C 13.2 °C 1014.8 hPa West 6.4 km/h 17.7 km/h 68% 0 mm
18:14 19.1 °C 12.6 °C 1014.8 hPa WSW 6.4 km/h 14.5 km/h 66% 0 mm
18:19 18.9 °C 12.2 °C 1014.8 hPa SW 17.7 km/h 17.7 km/h 65% 0 mm
18:24 18.9 °C 12 °C 1014.4 hPa WSW 12.9 km/h 19.3 km/h 64% 0 mm
18:29 18.8 °C 12.1 °C 1014.8 hPa WSW 8 km/h 19.3 km/h 65% 0 mm
18:34 18.8 °C 11.9 °C 1014.8 hPa West 8 km/h 16.1 km/h 64% 0 mm
18:39 18.9 °C 12.4 °C 1014.8 hPa West 8 km/h 16.1 km/h 66% 0 mm
18:44 19 °C 12.1 °C 1014.8 hPa West 8 km/h 16.1 km/h 64% 0 mm
18:49 19 °C 12.1 °C 1014.8 hPa West 8 km/h 16.1 km/h 64% 0 mm
18:54 18.8 °C 11.6 °C 1014.8 hPa West 4.8 km/h 16.1 km/h 63% 0 mm
18:59 18.9 °C 11.7 °C 1014.8 hPa WNW 9.7 km/h 12.9 km/h 63% 0 mm
19:04 19 °C 12.1 °C 1014.8 hPa WSW 8 km/h 11.3 km/h 64% 0 mm
19:09 18.8 °C 11.3 °C 1014.8 hPa WSW 4.8 km/h 19.3 km/h 62% 0 mm
19:14 18.7 °C 11.6 °C 1014.8 hPa West 8 km/h 12.9 km/h 63% 0 mm
19:19 18.7 °C 11.2 °C 1014.8 hPa West 8 km/h 16.1 km/h 62% 0 mm
19:24 18.4 °C 11.2 °C 1014.8 hPa West 4.8 km/h 14.5 km/h 63% 0 mm
19:29 18.1 °C 11.4 °C 1014.8 hPa West 6.4 km/h 14.5 km/h 65% 0 mm
19:34 18.2 °C 11.2 °C 1014.8 hPa West 4.8 km/h 12.9 km/h 64% 0 mm
19:39 18.2 °C 11.3 °C 1015.1 hPa West 6.4 km/h 12.9 km/h 64% 0 mm
19:44 18.3 °C 11.1 °C 1015.1 hPa West 4.8 km/h 11.3 km/h 63% 0 mm
19:49 18.2 °C 11.2 °C 1015.1 hPa West 3.2 km/h 9.7 km/h 64% 0 mm
19:54 17.9 °C 11.1 °C 1015.5 hPa WNW 4.8 km/h 12.9 km/h 64% 0 mm
19:59 17.7 °C 11.3 °C 1015.5 hPa West 4.8 km/h 12.9 km/h 66% 0 mm
20:04 17.6 °C 11.2 °C 1015.5 hPa West 4.8 km/h 9.7 km/h 66% 0 mm
20:09 17.7 °C 11.3 °C 1015.5 hPa West 3.2 km/h 8 km/h 66% 0 mm
20:14 17.8 °C 11.6 °C 1015.5 hPa West 3.2 km/h 6.4 km/h 67% 0 mm
20:19 17.9 °C 11.4 °C 1015.5 hPa West 3.2 km/h 8 km/h 66% 0 mm
20:24 18.1 °C 11.8 °C 1015.5 hPa West 3.2 km/h 8 km/h 67% 0 mm
20:29 18.2 °C 11.7 °C 1015.5 hPa West 3.2 km/h 9.7 km/h 66% 0 mm
20:34 18.1 °C 11.6 °C 1015.5 hPa West 3.2 km/h 9.7 km/h 66% 0 mm
20:39 17.9 °C 11.7 °C 1015.5 hPa West 3.2 km/h 6.4 km/h 67% 0 mm
20:44 17.8 °C 11.6 °C 1015.8 hPa Calm   9.7 km/h 67% 0 mm
20:49 17.7 °C 11.4 °C 1015.8 hPa West 1.6 km/h 6.4 km/h 67% 0 mm
20:54 17.6 °C 11.4 °C 1015.8 hPa West 3.2 km/h 8 km/h 67% 0 mm
20:59 17.5 °C 11.3 °C 1015.8 hPa West 3.2 km/h 8 km/h 67% 0 mm
21:04 17.3 °C 11.4 °C 1015.8 hPa West 3.2 km/h 4.8 km/h 68% 0 mm
21:09 17.2 °C 11.3 °C 1015.8 hPa West 1.6 km/h 4.8 km/h 68% 0 mm
21:14 17.1 °C 11.4 °C 1015.8 hPa Calm   3.2 km/h 69% 0 mm
21:19 16.9 °C 11.2 °C 1015.8 hPa Calm   1.6 km/h 69% 0 mm
21:24 16.8 °C 11.3 °C 1015.8 hPa Calm   4.8 km/h 70% 0 mm
21:29 16.8 °C 11.3 °C 1015.8 hPa West 1.6 km/h 8 km/h 70% 0 mm
21:34 16.9 °C 11 °C 1016.1 hPa West 6.4 km/h 8 km/h 68% 0 mm
21:39 17.1 °C 10.9 °C 1016.1 hPa West 6.4 km/h 6.4 km/h 67% 0 mm
21:44 17.1 °C 10.5 °C 1016.1 hPa West 4.8 km/h 11.3 km/h 65% 0 mm
21:49 17.2 °C 10.3 °C 1016.1 hPa West 1.6 km/h 11.3 km/h 64% 0 mm
21:54 17.1 °C 10.2 °C 1016.1 hPa WNW 3.2 km/h 8 km/h 64% 0 mm
21:59 17 °C 10.1 °C 1016.5 hPa West 3.2 km/h 11.3 km/h 64% 0 mm
22:04 16.9 °C 10.1 °C 1016.5 hPa West 4.8 km/h 11.3 km/h 64% 0 mm
22:09 16.8 °C 9.9 °C 1016.5 hPa WSW 4.8 km/h 11.3 km/h 64% 0 mm
22:14 16.8 °C 9.7 °C 1016.5 hPa WSW 4.8 km/h 11.3 km/h 63% 0 mm
22:19 16.6 °C 9.6 °C 1016.5 hPa West 3.2 km/h 8 km/h 63% 0 mm
22:24 16.5 °C 9.2 °C 1016.5 hPa West 4.8 km/h 9.7 km/h 62% 0 mm
22:29 16.3 °C 9.3 °C 1016.5 hPa West 4.8 km/h 9.7 km/h 63% 0 mm
22:34 16.2 °C 9.4 °C 1016.5 hPa West 3.2 km/h 9.7 km/h 64% 0 mm
22:39 16.1 °C 9.2 °C 1016.5 hPa West 3.2 km/h 8 km/h 64% 0 mm
22:44 15.9 °C 9.1 °C 1016.5 hPa Calm   6.4 km/h 64% 0 mm
22:49 15.7 °C 9.2 °C 1016.8 hPa SW 3.2 km/h 4.8 km/h 65% 0 mm
22:54 15.5 °C 8.9 °C 1016.8 hPa WSW 1.6 km/h 4.8 km/h 65% 0 mm
22:59 15.4 °C 8.9 °C 1016.8 hPa WSW 3.2 km/h 6.4 km/h 65% 0 mm
23:04 15.4 °C 8.7 °C 1016.8 hPa WSW 3.2 km/h 6.4 km/h 64% 0 mm
23:09 15.3 °C 8.6 °C 1016.8 hPa WSW 3.2 km/h 6.4 km/h 64% 0 mm
23:14 15.3 °C 8.8 °C 1016.8 hPa WSW 6.4 km/h 8 km/h 65% 0 mm
23:19 15.4 °C 9.1 °C 1017.2 hPa West 6.4 km/h 6.4 km/h 66% 0 mm
23:24 15.5 °C 9.6 °C 1017.2 hPa WSW 3.2 km/h 8 km/h 68% 0 mm
23:29 15.7 °C 10.2 °C 1017.2 hPa West 3.2 km/h 8 km/h 70% 0 mm
23:34 15.8 °C 10.8 °C 1017.2 hPa WSW 3.2 km/h 8 km/h 72% 0 mm
23:39 15.9 °C 11.1 °C 1017.2 hPa West 3.2 km/h 8 km/h 73% 0 mm
23:44 16 °C 11.2 °C 1017.2 hPa West 4.8 km/h 9.7 km/h 73% 0 mm
23:49 16.1 °C 11.4 °C 1017.2 hPa West 4.8 km/h 11.3 km/h 74% 0 mm
23:54 16.1 °C 11.5 °C 1017.2 hPa West 1.6 km/h 8 km/h 74% 0 mm
23:59 16.1 °C 11.5 °C 1017.2 hPa West 1.6 km/h 8 km/h 74% 0 mm
Buffalo, New York, USA
Compliments of Weather Underground - 2.5 mb